Time;durP1;ratioP1;P1;durP2;ratioP2;P2;SDS_P1;SDS_P2;PMS_P1;PMS_P2;Temp;Humidity;BMP_temperature;BMP_pressure;BME280_temperature;BME280_humidity;BME280_pressure;Samples;Min_cycle;Max_cycle;Signal;HPM_P1;HPM_P2
2022/11/21 00:00:05;;;;;;;18.77;7.95;;;;;;;13.53;86.34;98501.34;3144659;28;20114;-79
2022/11/21 00:01:37;;;;;;;13.75;7.30;;;;;;;13.53;86.42;98497.91;3144812;28;20048;-78
2022/11/21 00:03:10;;;;;;;17.35;7.03;;;;;;;13.38;86.35;98492.91;3144553;28;20433;-79
2022/11/21 00:04:42;;;;;;;15.93;7.25;;;;;;;13.45;86.40;98503.72;3142769;28;20131;-78
2022/11/21 00:06:14;;;;;;;18.67;7.90;;;;;;;13.44;86.78;98509.91;3144594;28;20513;-79
2022/11/21 00:07:46;;;;;;;16.83;7.30;;;;;;;13.44;86.89;98504.69;3144651;28;20580;-79
2022/11/21 00:09:18;;;;;;;14.88;7.43;;;;;;;13.42;86.93;98496.13;3144349;28;20105;-79
2022/11/21 00:10:49;;;;;;;19.40;7.22;;;;;;;13.41;86.90;98470.94;3144502;28;20110;-79
2022/11/21 00:12:22;;;;;;;13.13;6.47;;;;;;;13.44;86.77;98460.22;3143928;28;20546;-79
2022/11/21 00:13:54;;;;;;;15.27;6.90;;;;;;;13.48;86.56;98452.97;3144313;28;20131;-79
2022/11/21 00:15:25;;;;;;;16.63;7.00;;;;;;;13.47;86.60;98444.28;3144711;28;20484;-79
2022/11/21 00:16:57;;;;;;;14.90;6.50;;;;;;;13.42;86.75;98438.59;3144474;28;20048;-78
2022/11/21 00:18:28;;;;;;;14.77;6.50;;;;;;;13.45;86.88;98437.53;3144351;28;20098;-78
2022/11/21 00:20:00;;;;;;;13.13;6.15;;;;;;;13.42;86.84;98433.34;3144537;28;20048;-78
2022/11/21 00:21:31;;;;;;;11.23;5.63;;;;;;;13.43;87.04;98428.03;3144609;28;20513;-79
2022/11/21 00:23:02;;;;;;;12.07;6.15;;;;;;;13.41;87.02;98416.03;3144701;28;20053;-78
2022/11/21 00:24:34;;;;;;;14.82;6.85;;;;;;;13.39;87.12;98418.75;3144774;28;20056;-78
2022/11/21 00:26:07;;;;;;;12.13;6.75;;;;;;;13.37;87.23;98409.38;3144599;28;20418;-78
2022/11/21 00:27:41;;;;;;;15.23;6.38;;;;;;;13.38;86.97;98406.63;3139607;28;20110;-79
2022/11/21 00:29:13;;;;;;;14.48;5.85;;;;;;;13.28;87.13;98395.25;3144485;28;20122;-78
2022/11/21 00:30:43;;;;;;;12.40;5.88;;;;;;;13.32;87.16;98396.66;3144463;28;20434;-78
2022/11/21 00:32:15;;;;;;;12.65;6.30;;;;;;;13.36;87.29;98408.53;3144528;28;20048;-78
2022/11/21 00:33:47;;;;;;;14.50;6.00;;;;;;;13.32;87.18;98416.75;3144282;28;20056;-78
2022/11/21 00:35:19;;;;;;;13.60;7.05;;;;;;;13.31;87.25;98405.47;3144276;28;20117;-78
2022/11/21 00:36:51;;;;;;;15.75;6.13;;;;;;;13.32;87.26;98388.81;3144523;28;20067;-78
2022/11/21 00:38:24;;;;;;;12.35;6.80;;;;;;;13.29;87.37;98383.81;3144715;28;20138;-78
2022/11/21 00:39:54;;;;;;;14.95;6.88;;;;;;;13.11;87.04;98359.09;3144440;28;20127;-78
2022/11/21 00:41:26;;;;;;;15.60;6.15;;;;;;;13.28;87.15;98390.00;3144120;28;20045;-78
2022/11/21 00:42:59;;;;;;;12.60;6.65;;;;;;;13.30;87.37;98403.78;3144564;28;20048;-78
2022/11/21 00:44:31;;;;;;;16.30;6.82;;;;;;;13.28;87.55;98395.25;3144286;28;20148;-78
2022/11/21 00:46:03;;;;;;;10.60;6.15;;;;;;;13.28;87.37;98392.63;3144405;28;20053;-78
2022/11/21 00:47:34;;;;;;;18.25;6.25;;;;;;;13.29;87.35;98386.44;3144556;28;20048;-79
2022/11/21 00:49:06;;;;;;;16.50;6.93;;;;;;;13.31;87.42;98384.53;3144461;28;20048;-78
2022/11/21 00:50:38;;;;;;;13.77;5.85;;;;;;;13.31;87.31;98386.31;3144544;28;20056;-78
2022/11/21 00:52:10;;;;;;;14.30;6.38;;;;;;;13.29;87.21;98381.22;3144217;28;20448;-78
2022/11/21 00:53:42;;;;;;;15.23;7.10;;;;;;;13.26;87.38;98384.06;3144462;28;20060;-79
2022/11/21 00:55:13;;;;;;;20.42;7.57;;;;;;;13.18;87.40;98371.56;3144228;28;20048;-79
2022/11/21 00:56:45;;;;;;;19.10;7.70;;;;;;;13.15;87.70;98384.03;3144396;28;20055;-78
2022/11/21 00:58:18;;;;;;;14.32;7.25;;;;;;;13.11;88.17;98419.22;3144021;28;20488;-78
2022/11/21 00:59:49;;;;;;;17.20;6.68;;;;;;;13.03;88.38;98429.44;3144165;28;20098;-78
2022/11/21 01:01:21;;;;;;;11.52;6.80;;;;;;;12.93;88.74;98437.97;3144230;28;20592;-79
2022/11/21 01:02:53;;;;;;;12.80;7.10;;;;;;;12.96;89.27;98468.28;3144236;28;20056;-79
2022/11/21 01:04:24;;;;;;;15.02;6.90;;;;;;;12.92;89.42;98472.88;3144074;28;20052;-78
2022/11/21 01:06:01;;;;;;;9.90;6.15;;;;;;;12.87;89.75;98479.44;3144444;28;20091;-78
2022/11/21 01:07:33;;;;;;;15.30;6.40;;;;;;;12.83;89.77;98504.94;3144228;28;20561;-78
2022/11/21 01:09:04;;;;;;;23.17;6.18;;;;;;;12.59;90.24;98481.47;3143877;28;20121;-78
2022/11/21 01:10:36;;;;;;;17.42;6.10;;;;;;;12.79;90.30;98511.34;3144397;28;20128;-79
2022/11/21 01:12:08;;;;;;;14.02;6.20;;;;;;;12.79;90.61;98493.06;3144319;28;20060;-79
2022/11/21 01:13:42;;;;;;;14.02;6.00;;;;;;;12.74;90.63;98493.38;3143810;28;20052;-78
2022/11/21 01:15:14;;;;;;;12.77;5.82;;;;;;;12.77;90.52;98515.00;3144255;28;20496;-79
2022/11/21 01:16:46;;;;;;;13.20;5.63;;;;;;;12.79;90.99;98513.94;3144157;28;20131;-78
2022/11/21 01:18:18;;;;;;;14.45;5.97;;;;;;;12.79;90.98;98521.78;3144134;28;20449;-79
2022/11/21 01:19:50;;;;;;;17.55;5.80;;;;;;;12.79;90.85;98528.81;3144339;28;20102;-79
2022/11/21 01:21:24;;;;;;;11.43;5.60;;;;;;;12.78;90.99;98519.28;3143962;28;20211;-79
2022/11/21 01:22:56;;;;;;;12.90;6.47;;;;;;;12.82;90.99;98544.25;3144345;28;20094;-80
2022/11/21 01:24:28;;;;;;;15.15;5.50;;;;;;;12.72;91.33;98565.81;3145554;28;20059;-80
2022/11/21 01:26:03;;;;;;;14.88;5.80;;;;;;;12.75;91.39;98596.13;3146167;28;20567;-80
2022/11/21 01:27:35;;;;;;;13.15;5.82;;;;;;;12.72;91.90;98563.22;3146277;28;20477;-77
2022/11/21 01:29:08;;;;;;;14.90;6.50;;;;;;;12.75;92.06;98549.09;3146357;28;20049;-79
2022/11/21 01:30:40;;;;;;;16.60;6.50;;;;;;;12.72;91.92;98505.75;3146196;28;20080;-79
2022/11/21 01:32:12;;;;;;;16.27;6.53;;;;;;;12.76;91.90;98443.66;3146364;28;20048;-79
2022/11/21 01:33:45;;;;;;;13.20;7.03;;;;;;;12.81;91.88;98393.66;3146365;28;20052;-78
2022/11/21 01:35:17;;;;;;;12.88;6.82;;;;;;;12.83;91.81;98382.13;3146232;28;20075;-78
2022/11/21 01:36:49;;;;;;;15.65;6.90;;;;;;;12.86;92.18;98388.91;3146406;28;20051;-78
2022/11/21 01:38:20;;;;;;;14.63;7.68;;;;;;;12.74;92.03;98377.63;3146221;28;20053;-79
2022/11/21 01:39:51;;;;;;;16.02;8.27;;;;;;;12.90;92.00;98399.03;3146100;28;20046;-79
2022/11/21 01:41:27;;;;;;;18.65;8.27;;;;;;;12.95;91.58;98409.97;3146043;28;20052;-78
2022/11/21 01:43:03;;;;;;;20.02;8.18;;;;;;;12.99;91.63;98431.44;3145745;28;20052;-78
2022/11/21 01:44:50;;;;;;;18.80;8.48;;;;;;;12.97;91.31;98397.59;3146187;28;20102;-78
2022/11/21 01:46:23;;;;;;;14.35;9.02;;;;;;;13.01;91.53;98406.00;3146253;28;20110;-79
2022/11/21 01:47:55;;;;;;;22.15;9.13;;;;;;;13.02;91.46;98405.09;3146042;28;20049;-79
2022/11/21 01:49:30;;;;;;;17.57;9.37;;;;;;;13.00;91.54;98414.81;3146300;28;20044;-78
2022/11/21 01:51:07;;;;;;;16.48;8.38;;;;;;;13.06;91.66;98405.66;3145791;28;20618;-78
2022/11/21 01:52:39;;;;;;;17.95;7.65;;;;;;;13.04;91.63;98415.41;3146288;28;20075;-77
2022/11/21 01:54:16;;;;;;;15.77;7.88;;;;;;;12.84;91.89;98378.59;3146004;28;20436;-78
2022/11/21 01:55:47;;;;;;;15.05;7.80;;;;;;;12.95;92.06;98416.94;3146103;28;20528;-79
2022/11/21 01:57:22;;;;;;;14.05;8.20;;;;;;;12.73;92.15;98397.69;3145921;28;20194;-78
2022/11/21 01:58:59;;;;;;;16.27;8.63;;;;;;;13.01;92.13;98433.94;3146028;28;20431;-78
2022/11/21 02:00:36;;;;;;;15.23;7.50;;;;;;;13.01;92.57;98454.84;3146166;28;20539;-78
2022/11/21 02:02:11;;;;;;;17.92;7.45;;;;;;;12.94;92.37;98441.41;3141021;28;20541;-78
2022/11/21 02:03:46;;;;;;;15.07;7.45;;;;;;;13.00;92.57;98445.34;3146217;28;20048;-78
2022/11/21 02:05:22;;;;;;;15.77;8.25;;;;;;;13.02;92.67;98448.69;3145947;28;20076;-76
2022/11/21 02:06:54;;;;;;;14.18;7.70;;;;;;;13.01;93.02;98441.78;3145932;28;20052;-78
2022/11/21 02:08:27;;;;;;;15.48;7.93;;;;;;;13.02;93.11;98438.22;3146140;28;20044;-77
2022/11/21 02:10:01;;;;;;;18.95;9.30;;;;;;;13.00;92.93;98448.78;3145890;28;20052;-79
2022/11/21 02:11:38;;;;;;;15.65;7.15;;;;;;;13.03;93.08;98460.78;3146231;28;20044;-78
2022/11/21 02:13:09;;;;;;;13.85;7.38;;;;;;;12.98;93.14;98427.16;3145817;28;20105;-78
2022/11/21 02:14:43;;;;;;;11.60;6.72;;;;;;;12.81;92.91;98391.91;3144870;28;20052;-78
2022/11/21 02:16:17;;;;;;;15.68;7.05;;;;;;;13.00;93.17;98427.88;3144890;28;20044;-76
2022/11/21 02:17:48;;;;;;;19.02;6.57;;;;;;;13.00;92.70;98420.03;3145560;28;20128;-77
2022/11/21 02:19:28;;;;;;;15.60;6.30;;;;;;;13.06;92.66;98409.09;3145585;28;20521;-77
2022/11/21 02:21:10;;;;;;;15.48;6.47;;;;;;;13.07;92.35;98404.72;3145807;28;20045;-78
2022/11/21 02:22:50;;;;;;;12.35;5.78;;;;;;;13.07;92.23;98397.69;3146052;28;20063;-78
2022/11/21 02:24:30;;;;;;;16.15;6.35;;;;;;;13.08;92.24;98388.94;3145597;28;20125;-76
2022/11/21 02:26:02;;;;;;;13.43;5.78;;;;;;;13.09;91.86;98390.56;3145618;28;20082;-77
2022/11/21 02:27:34;;;;;;;17.13;5.75;;;;;;;13.11;91.74;98393.91;3145609;28;20049;-78
2022/11/21 02:29:06;;;;;;;10.98;6.18;;;;;;;13.08;91.63;98404.59;3145623;28;20053;-78
2022/11/21 02:30:40;;;;;;;14.32;6.40;;;;;;;13.13;91.22;98394.63;3145692;28;20052;-79
2022/11/21 02:32:21;;;;;;;14.52;6.40;;;;;;;13.13;91.25;98367.63;3145676;28;20591;-79
2022/11/21 02:33:53;;;;;;;12.15;5.63;;;;;;;13.12;90.95;98379.88;3143381;28;20060;-79
2022/11/21 02:35:25;;;;;;;14.55;7.47;;;;;;;12.96;90.76;98375.03;3145643;28;20092;-79
2022/11/21 02:36:57;;;;;;;14.10;7.03;;;;;;;13.09;91.04;98393.19;3145088;28;20044;-79
2022/11/21 02:38:31;;;;;;;11.30;5.93;;;;;;;12.89;90.91;98352.91;3145898;28;20059;-79
2022/11/21 02:40:08;;;;;;;12.10;6.03;;;;;;;13.09;90.90;98384.53;3145763;28;20382;-79
2022/11/21 02:41:46;;;;;;;11.48;5.75;;;;;;;13.08;90.90;98394.16;3140237;28;20458;-79
2022/11/21 02:43:23;;;;;;;13.45;6.25;;;;;;;13.09;90.62;98398.41;3145671;28;20053;-79
2022/11/21 02:45:02;;;;;;;13.70;6.05;;;;;;;13.05;90.72;98378.72;3145648;28;20049;-79
2022/11/21 02:46:34;;;;;;;10.57;5.72;;;;;;;13.05;90.95;98356.97;3145736;28;20480;-79
2022/11/21 02:48:06;;;;;;;14.00;6.72;;;;;;;13.05;90.71;98357.81;3145670;28;20044;-79
2022/11/21 02:49:47;;;;;;;12.05;6.45;;;;;;;13.02;90.91;98380.75;3145768;28;20575;-79
2022/11/21 02:51:19;;;;;;;12.02;6.57;;;;;;;12.97;90.84;98361.00;3145614;28;20074;-80
2022/11/21 02:52:51;;;;;;;11.88;6.40;;;;;;;12.89;90.96;98355.53;3145494;28;20102;-80
2022/11/21 02:54:23;;;;;;;14.27;6.82;;;;;;;12.95;90.71;98365.53;3146115;28;20113;-80
2022/11/21 02:55:54;;;;;;;17.58;6.78;;;;;;;12.94;91.00;98358.63;3145466;28;20053;-80
2022/11/21 02:57:27;;;;;;;9.02;5.75;;;;;;;12.91;90.89;98351.03;3145598;28;20628;-81
2022/11/21 02:58:59;;;;;;;11.23;6.50;;;;;;;12.93;90.86;98362.19;3145325;28;20044;-80
2022/11/21 03:00:31;;;;;;;11.77;6.07;;;;;;;12.91;90.59;98366.72;3145743;28;20051;-79
2022/11/21 03:02:02;;;;;;;12.32;6.00;;;;;;;12.82;90.60;98356.16;3145321;28;20052;-78
2022/11/21 03:03:34;;;;;;;14.63;6.45;;;;;;;12.89;90.53;98363.38;3145631;28;20048;-79
2022/11/21 03:05:08;;;;;;;11.15;5.82;;;;;;;12.81;90.32;98350.09;3145546;28;20051;-78
2022/11/21 03:06:39;;;;;;;14.65;6.53;;;;;;;12.89;90.46;98359.94;3145495;28;20065;-79
2022/11/21 03:08:11;;;;;;;16.25;6.65;;;;;;;12.82;90.05;98369.22;3145353;28;20052;-78
2022/11/21 03:09:41;;;;;;;11.18;6.07;;;;;;;12.79;90.10;98375.50;3145634;28;20110;-78
2022/11/21 03:11:13;;;;;;;12.52;6.22;;;;;;;12.71;90.11;98393.53;3145494;28;20096;-79
2022/11/21 03:12:45;;;;;;;14.68;7.60;;;;;;;12.71;89.81;98381.28;3145448;28;20049;-79
2022/11/21 03:14:17;;;;;;;12.15;6.72;;;;;;;12.68;89.63;98370.25;3145087;28;20049;-79
2022/11/21 03:15:49;;;;;;;11.35;6.18;;;;;;;12.64;89.69;98385.34;3145027;28;20122;-79
2022/11/21 03:17:21;;;;;;;13.77;6.18;;;;;;;12.61;89.66;98385.56;3145251;28;21599;-79
2022/11/21 03:18:52;;;;;;;14.13;6.70;;;;;;;12.53;90.26;98370.47;3145008;28;20157;-79
2022/11/21 03:20:24;;;;;;;11.35;6.47;;;;;;;12.34;90.15;98336.28;3144932;28;20532;-79
2022/11/21 03:21:56;;;;;;;13.77;6.70;;;;;;;12.45;89.94;98380.69;3145075;28;20052;-78
2022/11/21 03:23:28;;;;;;;21.75;7.03;;;;;;;12.42;90.16;98369.63;3145188;28;20394;-78
2022/11/21 03:25:00;;;;;;;12.93;7.40;;;;;;;12.22;90.66;98326.78;3145425;28;20048;-77
2022/11/21 03:26:30;;;;;;;17.42;8.38;;;;;;;12.37;90.58;98343.88;3145144;28;20048;-79
2022/11/21 03:28:04;;;;;;;16.00;8.20;;;;;;;12.27;90.56;98354.19;3145339;28;20129;-79
2022/11/21 03:29:35;;;;;;;18.45;8.30;;;;;;;12.32;90.66;98343.38;3145309;28;20084;-78
2022/11/21 03:31:07;;;;;;;16.30;7.65;;;;;;;12.29;90.78;98364.50;3144879;28;20067;-78
2022/11/21 03:32:37;;;;;;;15.68;9.23;;;;;;;12.26;91.48;98349.91;3145024;28;20708;-78
2022/11/21 03:34:09;;;;;;;16.25;8.50;;;;;;;12.23;91.79;98334.47;3144479;28;20131;-77
2022/11/21 03:35:40;;;;;;;22.30;10.05;;;;;;;12.26;91.90;98329.03;3143546;28;20052;-78
2022/11/21 03:37:12;;;;;;;21.80;11.02;;;;;;;12.15;92.18;98294.25;3135995;28;20052;-78
2022/11/21 03:38:44;;;;;;;16.52;10.00;;;;;;;12.24;92.50;98312.63;3136364;28;20052;-79
2022/11/21 03:40:16;;;;;;;21.63;11.23;;;;;;;12.26;92.28;98317.75;3135056;28;20512;-78
2022/11/21 03:41:48;;;;;;;17.95;11.65;;;;;;;12.26;92.43;98315.16;3134900;28;20048;-78
2022/11/21 03:43:21;;;;;;;23.17;9.68;;;;;;;12.28;92.45;98331.53;3135812;28;20052;-79
2022/11/21 03:44:52;;;;;;;23.75;11.18;;;;;;;12.27;92.52;98341.16;3136022;28;20090;-78
2022/11/21 03:46:25;;;;;;;23.00;10.02;;;;;;;12.28;92.53;98337.56;3135916;28;20052;-79
2022/11/21 03:47:56;;;;;;;22.92;10.60;;;;;;;12.28;92.60;98321.91;3135521;28;20413;-79
2022/11/21 03:49:28;;;;;;;24.65;10.57;;;;;;;12.28;93.28;98310.66;3134603;28;20101;-80
2022/11/21 03:50:59;;;;;;;17.92;10.98;;;;;;;12.29;93.23;98315.75;3134943;28;20055;-79
2022/11/21 03:52:32;;;;;;;22.45;10.48;;;;;;;12.31;93.15;98333.91;3134913;28;20597;-79
2022/11/21 03:54:04;;;;;;;22.27;10.60;;;;;;;12.30;92.95;98324.41;3134842;28;20071;-79
2022/11/21 03:55:35;;;;;;;20.23;10.90;;;;;;;12.27;93.06;98303.75;3135057;28;20314;-80
2022/11/21 03:57:07;;;;;;;27.05;11.30;;;;;;;12.27;93.14;98301.13;3135812;28;20083;-80
2022/11/21 03:58:41;;;;;;;17.85;10.50;;;;;;;12.26;93.33;98308.13;3135625;28;20066;-80
2022/11/21 04:00:14;;;;;;;19.65;9.88;;;;;;;12.27;93.51;98328.09;3135922;28;20048;-79
2022/11/21 04:01:46;;;;;;;;;;;;;;;12.18;93.53;98338.38;3136077;28;20052;-79
2022/11/21 04:03:18;;;;;;;20.65;9.55;;;;;;;12.17;93.90;98324.50;3135123;28;20003;-80
2022/11/21 04:04:50;;;;;;;21.60;12.07;;;;;;;12.14;93.58;98303.84;3139081;28;20087;-79
2022/11/21 04:06:22;;;;;;;21.30;11.43;;;;;;;12.17;93.66;98289.75;3139702;28;20118;-79
2022/11/21 04:07:54;;;;;;;24.10;11.50;;;;;;;12.16;93.69;98285.47;3139930;28;20113;-79
2022/11/21 04:09:25;;;;;;;25.95;11.73;;;;;;;12.18;94.03;98301.84;3139496;28;20189;-78
2022/11/21 04:10:58;;;;;;;25.20;11.63;;;;;;;11.96;94.16;98279.97;3139379;28;20084;-78
2022/11/21 04:12:29;;;;;;;21.90;11.35;;;;;;;12.18;93.99;98333.97;3139480;28;20106;-79
2022/11/21 04:14:03;;;;;;;20.23;11.85;;;;;;;12.15;94.14;98323.78;3137208;28;20133;-78
2022/11/21 04:15:35;;;;;;;21.30;12.10;;;;;;;12.23;94.18;98328.44;3133250;28;20131;-79
2022/11/21 04:17:07;;;;;;;26.25;11.73;;;;;;;12.21;93.88;98315.47;3139419;28;20052;-78
2022/11/21 04:18:39;;;;;;;27.00;12.77;;;;;;;12.23;94.27;98336.25;3139455;28;20151;-80
2022/11/21 04:20:11;;;;;;;19.80;12.27;;;;;;;12.24;94.22;98343.13;3139233;28;20179;-79
2022/11/21 04:21:44;;;;;;;33.20;14.23;;;;;;;12.23;94.08;98338.88;3139573;28;20052;-79
2022/11/21 04:23:15;;;;;;;24.83;14.48;;;;;;;12.23;94.08;98338.88;3139423;28;20164;-79
2022/11/21 04:24:47;;;;;;;20.83;12.57;;;;;;;12.20;94.03;98331.28;3139401;28;20121;-78
2022/11/21 04:26:19;;;;;;;23.42;12.32;;;;;;;12.23;93.98;98328.44;3139234;28;20053;-79
2022/11/21 04:27:50;;;;;;;24.58;12.65;;;;;;;12.19;93.59;98321.78;3139284;28;20564;-79
2022/11/21 04:29:24;;;;;;;26.35;13.32;;;;;;;12.22;93.77;98319.78;3138513;28;20210;-78
2022/11/21 04:30:55;;;;;;;;;;;;;;;12.15;93.59;98318.56;3139670;28;20504;-78
2022/11/21 04:32:27;;;;;;;27.60;13.35;;;;;;;12.14;93.90;98313.47;3139023;28;19978;-78
2022/11/21 04:33:58;;;;;;;27.17;14.25;;;;;;;12.10;93.90;98298.97;3139158;28;20052;-78
2022/11/21 04:35:30;;;;;;;31.63;13.60;;;;;;;12.14;93.66;98316.06;3139388;28;20580;-78
2022/11/21 04:37:02;;;;;;;23.52;12.68;;;;;;;12.12;93.80;98316.19;3139053;28;20147;-79
2022/11/21 04:38:34;;;;;;;27.25;13.05;;;;;;;12.16;93.73;98327.25;3139332;28;20486;-79
2022/11/21 04:40:07;;;;;;;27.13;14.07;;;;;;;12.03;93.61;98312.47;3134443;28;20116;-79
2022/11/21 04:41:39;;;;;;;29.45;14.00;;;;;;;12.15;93.52;98334.22;3133374;28;20052;-79
2022/11/21 04:43:10;;;;;;;31.60;14.75;;;;;;;12.15;93.37;98334.22;3139476;28;20122;-80
2022/11/21 04:44:43;;;;;;;33.05;15.57;;;;;;;12.15;93.22;98308.13;3139250;28;20111;-80
2022/11/21 04:46:15;;;;;;;35.40;14.23;;;;;;;12.13;93.29;98298.75;3138898;28;20171;-79
2022/11/21 04:47:48;;;;;;;29.17;14.73;;;;;;;12.12;93.50;98305.72;3139435;28;20109;-81
2022/11/21 04:49:20;;;;;;;43.05;15.23;;;;;;;12.11;93.34;98311.09;3139258;28;20056;-78
2022/11/21 04:50:52;;;;;;;30.52;14.93;;;;;;;12.07;93.37;98316.53;3139210;28;20056;-80
2022/11/21 04:52:24;;;;;;;34.55;16.23;;;;;;;12.07;93.36;98321.75;3139133;28;20164;-80
2022/11/21 04:53:56;;;;;;;55.17;16.25;;;;;;;12.07;93.39;98326.97;3139125;28;20150;-80
2022/11/21 04:55:30;;;;;;;32.90;16.20;;;;;;;12.09;93.77;98344.28;3139078;28;20057;-81
2022/11/21 04:57:02;;;;;;;34.72;15.95;;;;;;;12.05;93.59;98357.56;3139064;28;20057;-80
2022/11/21 04:58:34;;;;;;;41.30;16.80;;;;;;;12.04;93.88;98350.69;3138961;28;20122;-80
2022/11/21 05:00:08;;;;;;;41.40;17.33;;;;;;;11.98;93.98;98305.94;3140983;28;20051;-80
2022/11/21 05:01:39;;;;;;;39.40;16.40;;;;;;;12.00;94.00;98302.28;3141387;28;20497;-80
2022/11/21 05:03:10;;;;;;;42.55;16.13;;;;;;;11.93;94.50;98311.50;3141287;28;20364;-81
2022/11/21 05:04:42;;;;;;;35.47;16.92;;;;;;;11.92;94.82;98329.88;3141326;28;20530;-80
2022/11/21 05:06:13;;;;;;;29.27;15.50;;;;;;;11.90;94.64;98331.78;3141554;28;20056;-80
2022/11/21 05:07:45;;;;;;;34.03;16.33;;;;;;;11.90;94.77;98327.41;3141125;28;20052;-79
2022/11/21 05:09:17;;;;;;;29.65;15.68;;;;;;;11.91;94.96;98313.41;3141117;28;20049;-79
2022/11/21 05:14:28;;;;;;;30.15;16.25;;;;;;;11.84;94.75;98320.00;3141221;28;20159;-79
2022/11/21 05:16:01;;;;;;;33.30;16.52;;;;;;;11.87;94.93;98329.41;3141465;28;20055;-80
2022/11/21 05:17:33;;;;;;;;;;;;;;;11.79;94.99;98322.09;3141710;28;20052;-79
2022/11/21 05:19:06;;;;;;;26.75;14.90;;;;;;;11.80;95.15;98328.97;3140967;28;20530;-79
2022/11/21 05:20:38;;;;;;;27.90;14.85;;;;;;;11.81;94.81;98344.53;3141226;28;20048;-74
2022/11/21 05:22:11;;;;;;;28.80;14.93;;;;;;;11.82;94.83;98338.34;3141114;28;20052;-79
2022/11/21 05:23:43;;;;;;;26.52;16.58;;;;;;;11.81;94.70;98317.63;3141352;28;20056;-80
2022/11/21 05:25:15;;;;;;;28.52;15.02;;;;;;;11.76;94.76;98294.47;3140965;28;20540;-80
2022/11/21 05:26:46;;;;;;;27.30;15.25;;;;;;;11.76;94.46;98298.84;3141056;28;20057;-70
2022/11/21 05:28:18;;;;;;;28.63;14.95;;;;;;;11.76;94.58;98302.28;3141250;28;20049;-77
2022/11/21 05:29:50;;;;;;;27.63;14.68;;;;;;;11.76;94.56;98314.50;3141256;28;20057;-78
2022/11/21 05:31:24;;;;;;;28.55;14.45;;;;;;;11.76;94.12;98309.28;3140699;28;20066;-76
2022/11/21 05:32:55;;;;;;;;;;;;;;;11.66;94.10;98309.13;3141230;28;20055;-74
2022/11/21 05:34:27;;;;;;;23.10;12.10;;;;;;;11.68;94.39;98309.00;3140828;28;20023;-77
2022/11/21 05:35:59;;;;;;;27.58;13.50;;;;;;;11.60;94.05;98289.56;3140983;28;20373;-75
2022/11/21 05:37:30;;;;;;;27.40;13.18;;;;;;;11.73;94.10;98312.13;3142615;28;20048;-76
2022/11/21 05:39:02;;;;;;;28.05;13.30;;;;;;;11.76;93.71;98319.72;3146135;28;20190;-76
2022/11/21 05:40:33;;;;;;;28.77;13.77;;;;;;;11.57;93.57;98295.00;3145807;28;20110;-75
2022/11/21 05:42:05;;;;;;;25.92;14.32;;;;;;;11.75;93.50;98334.53;3145897;28;20190;-74
2022/11/21 05:43:45;;;;;;;27.27;14.73;;;;;;;11.74;93.18;98326.81;3146153;28;20067;-75
2022/11/21 05:45:15;;;;;;;31.00;17.90;;;;;;;11.77;93.43;98329.19;3146328;28;20059;-68
2022/11/21 05:46:49;;;;;;;33.20;17.77;;;;;;;11.80;93.60;98339.41;3145910;28;20080;-74
2022/11/21 05:48:21;;;;;;;41.35;21.38;;;;;;;11.77;93.54;98330.06;3145877;28;20048;-72
2022/11/21 05:49:52;;;;;;;37.50;19.75;;;;;;;11.92;93.77;98341.16;3145925;28;20052;-75
2022/11/21 05:51:24;;;;;;;33.20;16.45;;;;;;;12.00;93.84;98336.19;3145959;28;20050;-80
2022/11/21 05:52:59;;;;;;;38.13;18.25;;;;;;;12.10;94.03;98331.13;3146279;28;20378;-80
2022/11/21 05:54:31;;;;;;;32.60;17.55;;;;;;;12.24;93.95;98345.75;3146170;28;20080;-77
2022/11/21 05:56:05;;;;;;;35.00;18.63;;;;;;;12.28;93.89;98353.25;3146191;28;20060;-74
2022/11/21 05:57:37;;;;;;;33.05;17.08;;;;;;;12.50;94.09;98370.72;3146237;28;20045;-76
2022/11/21 05:59:10;;;;;;;31.38;15.73;;;;;;;12.62;94.06;98360.28;3145491;28;20083;-76
2022/11/21 06:00:42;;;;;;;37.35;17.50;;;;;;;12.75;93.65;98348.78;3145815;28;20110;-74
2022/11/21 06:04:04;;;;;;;30.92;15.55;;;;;;;12.98;93.55;98361.81;3146175;28;20132;-75
2022/11/21 06:05:36;;;;;;;23.70;12.45;;;;;;;13.10;93.32;98353.06;3145946;28;20418;-76
2022/11/21 06:07:08;;;;;;;23.05;12.38;;;;;;;13.25;93.23;98351.03;3145777;28;20052;-74
2022/11/21 06:08:42;;;;;;;22.90;11.75;;;;;;;13.35;92.77;98344.13;3142913;28;20137;-81
2022/11/21 06:10:14;;;;;;;19.92;11.65;;;;;;;13.59;92.65;98371.88;3144413;28;20173;-81
2022/11/21 06:11:46;;;;;;;23.48;13.07;;;;;;;13.75;92.13;98393.22;3144833;28;20059;-80
2022/11/21 06:13:24;;;;;;;23.40;12.30;;;;;;;13.94;92.01;98379.50;3145814;28;20110;-79
2022/11/21 06:14:55;;;;;;;22.17;11.40;;;;;;;14.10;91.43;98381.66;3146116;28;20457;-79
2022/11/21 06:16:27;;;;;;;23.55;12.98;;;;;;;14.24;90.64;98364.84;3145859;28;20048;-81
2022/11/21 06:18:01;;;;;;;23.55;10.95;;;;;;;14.42;89.68;98370.31;3145560;28;20048;-82
2022/11/21 06:19:33;;;;;;;27.73;11.10;;;;;;;14.54;89.19;98353.59;3145944;28;20127;-80
2022/11/21 06:21:07;;;;;;;23.48;11.75;;;;;;;14.69;88.40;98352.28;3145573;28;20045;-76
2022/11/21 06:22:39;;;;;;;16.65;10.70;;;;;;;14.79;87.89;98345.31;3147346;28;20075;-75
2022/11/21 06:24:11;;;;;;;19.73;10.98;;;;;;;14.93;87.22;98343.28;3145470;28;20048;-75
2022/11/21 06:25:44;;;;;;;25.30;12.57;;;;;;;15.02;86.81;98332.88;3145540;28;20434;-79
2022/11/21 06:27:15;;;;;;;22.75;11.73;;;;;;;15.25;86.25;98338.69;3145479;28;20053;-75
2022/11/21 06:28:48;;;;;;;23.20;10.50;;;;;;;15.43;85.26;98344.13;3145695;28;20140;-78
2022/11/21 06:30:19;;;;;;;20.17;11.00;;;;;;;15.57;84.53;98342.09;3145498;28;20052;-77
2022/11/21 06:31:50;;;;;;;23.85;12.55;;;;;;;15.57;83.76;98348.16;3145333;28;20575;-72
2022/11/21 06:33:24;;;;;;;35.55;20.98;;;;;;;15.50;83.03;98357.53;3145625;28;20533;-69
2022/11/21 06:34:55;;;;;;;44.90;26.00;;;;;;;15.40;82.64;98364.56;3145859;28;20052;-75
2022/11/21 06:36:27;;;;;;;39.55;20.92;;;;;;;15.30;82.77;98351.44;3145444;28;20059;-75
2022/11/21 06:37:59;;;;;;;29.35;14.68;;;;;;;15.21;82.43;98353.06;3145354;28;20501;-73
2022/11/21 06:39:31;;;;;;;86.80;45.28;;;;;;;15.17;82.44;98356.06;3145788;28;20041;-75
2022/11/21 06:41:04;;;;;;;100.40;53.88;;;;;;;15.43;82.26;98359.03;3145292;28;20097;-79
2022/11/21 06:42:36;;;;;;;22.92;14.05;;;;;;;15.71;81.16;98375.00;3145450;28;20501;-74
2022/11/21 06:44:08;;;;;;;30.27;13.65;;;;;;;16.03;79.97;98369.47;3145595;28;20125;-72
2022/11/21 06:45:40;;;;;;;23.48;12.43;;;;;;;16.42;79.01;98385.22;3145647;28;20086;-72
2022/11/21 06:47:12;;;;;;;25.92;13.85;;;;;;;16.85;77.88;98376.81;3145203;28;20110;-72
2022/11/21 06:48:45;;;;;;;26.40;12.50;;;;;;;16.98;76.55;98379.97;3145380;28;20060;-72
2022/11/21 06:50:17;;;;;;;;;;;;;;;16.96;75.95;98384.53;3146191;28;20056;-73
2022/11/21 06:51:48;;;;;;;32.78;15.35;;;;;;;17.10;75.63;98392.94;3145724;28;19935;-72
2022/11/21 06:53:20;;;;;;;32.15;17.80;;;;;;;17.31;74.63;98387.44;3145496;28;20056;-74
2022/11/21 06:54:52;;;;;;;24.27;14.43;;;;;;;17.58;74.13;98376.06;3145820;28;20773;-74
2022/11/21 06:56:25;;;;;;;25.02;13.70;;;;;;;17.91;73.23;98382.50;3145502;28;20063;-75
2022/11/21 06:57:57;;;;;;;26.02;11.30;;;;;;;18.21;72.14;98388.34;3145657;28;20136;-75
2022/11/21 06:59:29;;;;;;;23.60;12.02;;;;;;;18.61;71.66;98388.66;3145554;28;20139;-70
2022/11/21 07:01:04;;;;;;;18.45;9.85;;;;;;;19.14;70.08;98388.63;3145035;28;20090;-67
2022/11/21 07:02:36;;;;;;;15.88;9.18;;;;;;;19.58;68.99;98377.91;3145278;28;20472;-68
2022/11/21 07:04:09;;;;;;;14.82;7.78;;;;;;;19.91;66.93;98379.66;3145481;28;20048;-67
2022/11/21 07:05:41;;;;;;;;;;;;;;;20.15;65.27;98381.50;3145670;28;20098;-68
2022/11/21 07:07:13;;;;;;;20.30;8.80;;;;;;;20.13;64.56;98390.59;3144857;28;20033;-67
2022/11/21 07:08:44;;;;;;;18.30;9.02;;;;;;;20.37;63.79;98397.69;3145271;28;20048;-68
2022/11/21 07:10:16;;;;;;;17.95;8.45;;;;;;;20.77;62.41;98394.22;3145137;28;20045;-68
2022/11/21 07:11:47;;;;;;;18.83;8.77;;;;;;;21.17;61.18;98388.97;3144872;28;20067;-69
2022/11/21 07:13:22;;;;;;;20.25;6.82;;;;;;;21.49;59.45;98374.78;3145088;28;20056;-69
2022/11/21 07:14:53;;;;;;;17.13;7.45;;;;;;;21.92;58.44;98383.16;3145197;28;20106;-67